createdAt,value
2024-03-03T00:00:38.829Z,21.98
2024-03-03T00:01:38.813Z,22.02
2024-03-03T00:02:38.849Z,21.96
2024-03-03T00:03:38.887Z,21.94
2024-03-03T00:04:38.812Z,21.95
2024-03-03T00:05:38.816Z,21.94
2024-03-03T00:55:45.106Z,22.07
2024-03-03T00:56:39.948Z,22.05
2024-03-03T00:57:39.110Z,21.99
2024-03-03T00:58:39.092Z,22.05
2024-03-03T00:59:39.083Z,22.04
2024-03-03T01:00:39.112Z,21.99
2024-03-03T01:01:39.116Z,21.99
2024-03-03T01:02:39.137Z,21.96
2024-03-03T01:03:39.118Z,22.05
2024-03-03T01:04:39.100Z,22.01
2024-03-03T01:05:39.097Z,21.92
2024-03-03T01:06:39.142Z,21.97
2024-03-03T01:07:42.678Z,21.96
2024-03-03T01:08:39.100Z,22.02
2024-03-03T01:09:39.150Z,21.99
2024-03-03T01:10:39.132Z,21.96
2024-03-03T01:11:39.218Z,22.02
2024-03-03T01:12:39.164Z,22.02
2024-03-03T01:13:39.125Z,22.06
2024-03-03T01:14:39.129Z,21.99
2024-03-03T01:15:39.160Z,21.97
2024-03-03T01:16:39.145Z,21.97
2024-03-03T01:17:39.130Z,21.97
2024-03-03T01:18:39.141Z,21.96
2024-03-03T01:19:39.175Z,21.97
2024-03-03T01:20:39.130Z,21.97
2024-03-03T01:21:39.151Z,22.04
2024-03-03T01:22:39.467Z,21.97
2024-03-03T01:23:39.133Z,21.97
2024-03-03T01:24:39.173Z,21.96
2024-03-03T01:25:39.154Z,21.99
2024-03-03T01:26:39.217Z,21.91
2024-03-03T01:27:39.242Z,21.96
2024-03-03T01:28:39.266Z,21.99
2024-03-03T01:29:39.233Z,21.96
2024-03-03T01:30:39.323Z,21.99
2024-03-03T01:31:39.296Z,21.99
2024-03-03T01:32:39.329Z,21.96
2024-03-03T01:33:39.384Z,22.01
2024-03-03T01:34:39.474Z,21.99
2024-03-03T01:35:39.370Z,21.97
2024-03-03T01:36:39.419Z,22.02
2024-03-03T01:37:39.427Z,22.01
2024-03-03T01:38:39.449Z,22.00
2024-03-03T01:39:39.587Z,22.02
2024-03-03T01:40:39.480Z,21.94
2024-03-03T01:41:39.507Z,21.94
2024-03-03T01:42:39.561Z,22.00
2024-03-03T01:43:39.583Z,22.02
2024-03-03T01:44:39.603Z,21.96
2024-03-03T01:45:39.612Z,22.00
2024-03-03T01:46:39.626Z,22.02
2024-03-03T01:47:39.699Z,22.04
2024-03-03T01:48:39.694Z,22.03
2024-03-03T01:49:39.696Z,22.02
2024-03-03T01:50:39.707Z,21.99
2024-03-03T01:51:39.753Z,22.08
2024-03-03T01:52:39.749Z,22.05
2024-03-03T01:53:39.787Z,22.00
2024-03-03T01:54:39.838Z,22.00
2024-03-03T01:55:39.827Z,21.99
2024-03-03T01:56:39.845Z,22.04
2024-03-03T01:57:39.866Z,22.04
2024-03-03T01:58:39.889Z,22.08
2024-03-03T01:59:39.932Z,22.05
2024-03-03T02:00:39.983Z,22.08
2024-03-03T02:01:40.068Z,22.07
2024-03-03T02:02:39.970Z,22.07
2024-03-03T02:03:40.009Z,22.04
2024-03-03T02:04:40.004Z,22.05
2024-03-03T02:05:40.012Z,22.07
2024-03-03T02:06:40.065Z,22.07
2024-03-03T02:07:40.048Z,22.17
2024-03-03T02:08:40.058Z,22.08
2024-03-03T02:09:40.104Z,22.12
2024-03-03T02:10:40.105Z,22.12
2024-03-03T02:11:40.100Z,22.10
2024-03-03T02:12:40.142Z,22.10
2024-03-03T02:13:40.136Z,22.10
2024-03-03T02:14:40.156Z,22.13
2024-03-03T02:15:40.239Z,22.10
2024-03-03T02:16:40.201Z,22.12
2024-03-03T02:17:40.220Z,22.13
2024-03-03T02:18:40.270Z,22.13
2024-03-03T02:19:40.373Z,22.17
2024-03-03T02:20:40.269Z,22.16
2024-03-03T02:21:40.300Z,22.16
2024-03-03T02:22:40.306Z,22.15
2024-03-03T02:23:40.332Z,22.15
2024-03-03T02:24:40.385Z,22.16
2024-03-03T02:25:40.373Z,22.16
2024-03-03T02:26:40.384Z,22.16
2024-03-03T02:27:40.433Z,22.16
2024-03-03T02:28:40.413Z,22.21
2024-03-03T02:29:40.983Z,22.24
2024-03-03T02:30:40.491Z,22.21
2024-03-03T02:31:41.034Z,22.23
2024-03-03T02:32:40.510Z,22.21
2024-03-03T02:33:40.544Z,22.21
2024-03-03T02:34:40.521Z,22.21
2024-03-03T02:35:41.480Z,22.28
2024-03-03T02:36:40.589Z,22.19
2024-03-03T02:37:40.622Z,22.24
2024-03-03T02:38:40.683Z,22.23
2024-03-03T02:39:40.660Z,22.19
2024-03-03T02:40:40.657Z,22.26
2024-03-03T02:41:40.664Z,22.19
2024-03-03T02:42:40.711Z,22.23
2024-03-03T02:43:40.729Z,22.20
2024-03-03T02:44:40.745Z,22.21
2024-03-03T02:45:40.807Z,22.24
2024-03-03T02:46:40.791Z,22.29
2024-03-03T02:47:40.861Z,22.31
2024-03-03T02:48:40.877Z,22.21
2024-03-03T02:49:40.863Z,22.24
2024-03-03T02:50:40.894Z,22.29
2024-03-03T02:51:41.000Z,22.21
2024-03-03T02:52:40.947Z,22.24
2024-03-03T02:53:40.982Z,22.21
2024-03-03T02:54:41.041Z,22.23
2024-03-03T02:55:41.043Z,22.31
2024-03-03T02:56:41.064Z,22.21
2024-03-03T02:57:43.428Z,22.29
2024-03-03T02:58:41.993Z,22.31
2024-03-03T02:59:41.073Z,22.31
2024-03-03T03:00:41.637Z,22.23
2024-03-03T03:01:41.181Z,22.32
2024-03-03T03:02:41.087Z,22.32
2024-03-03T03:03:41.129Z,22.28
2024-03-03T03:04:41.093Z,22.29
2024-03-03T03:05:41.096Z,22.27
2024-03-03T03:06:41.097Z,22.26
2024-03-03T03:07:41.098Z,22.26
2024-03-03T03:08:42.006Z,22.29
2024-03-03T03:09:41.118Z,22.27
2024-03-03T03:10:41.101Z,22.24
2024-03-03T03:11:41.115Z,22.19
2024-03-03T03:12:41.142Z,22.21
2024-03-03T03:13:41.623Z,22.18
2024-03-03T03:14:41.108Z,22.23
2024-03-03T03:15:41.513Z,22.21
2024-03-03T03:16:41.122Z,22.23
2024-03-03T03:17:41.136Z,22.24
2024-03-03T03:18:41.153Z,22.21
2024-03-03T03:19:41.155Z,22.21
2024-03-03T03:20:41.440Z,22.23
2024-03-03T03:21:41.188Z,22.21
2024-03-03T03:22:41.998Z,22.19
2024-03-03T03:23:41.215Z,22.13
2024-03-03T03:24:41.257Z,22.19
2024-03-03T03:25:41.274Z,22.22
2024-03-03T03:26:41.299Z,22.21
2024-03-03T03:27:41.341Z,22.18
2024-03-03T03:28:41.345Z,22.21
2024-03-03T03:29:41.374Z,22.22
2024-03-03T03:30:41.395Z,22.16
2024-03-03T03:31:42.000Z,22.18
2024-03-03T03:32:41.470Z,22.19
2024-03-03T03:33:41.491Z,22.15
2024-03-03T03:34:41.483Z,22.18
2024-03-03T03:35:41.575Z,22.08
2024-03-03T03:36:41.567Z,22.19
2024-03-03T03:37:42.027Z,22.18
2024-03-03T03:38:41.577Z,22.16
2024-03-03T03:39:41.652Z,22.16
2024-03-03T03:40:41.653Z,22.13
2024-03-03T03:41:41.658Z,22.15
2024-03-03T03:42:41.733Z,22.16
2024-03-03T03:43:41.711Z,22.16
2024-03-03T03:44:41.741Z,22.18
2024-03-03T03:45:41.786Z,22.13
2024-03-03T03:46:41.799Z,22.16
2024-03-03T03:47:41.936Z,22.16
2024-03-03T03:48:42.532Z,22.19
2024-03-03T03:49:41.877Z,22.16
2024-03-03T03:50:41.902Z,22.16
2024-03-03T03:51:42.023Z,22.24
2024-03-03T03:52:41.951Z,22.18
2024-03-03T03:53:41.972Z,22.22
2024-03-03T03:54:42.041Z,22.24
2024-03-03T03:55:42.036Z,22.17
2024-03-03T03:56:42.072Z,22.21
2024-03-03T03:57:42.121Z,22.13
2024-03-03T03:58:42.117Z,22.22
2024-03-03T03:59:42.141Z,22.21
2024-03-03T04:00:42.262Z,22.21
2024-03-03T04:01:43.068Z,22.18
2024-03-03T04:02:42.211Z,22.18
2024-03-03T04:03:43.058Z,22.16
2024-03-03T04:04:42.293Z,22.16
2024-03-03T04:05:42.298Z,22.21
2024-03-03T04:06:43.048Z,22.24
2024-03-03T04:07:42.366Z,22.29
2024-03-03T04:08:42.367Z,22.21
2024-03-03T04:09:42.419Z,22.27
2024-03-03T04:10:42.490Z,22.17
2024-03-03T04:11:42.445Z,22.21
2024-03-03T04:12:42.570Z,22.24
2024-03-03T04:13:42.506Z,22.22
2024-03-03T04:14:42.517Z,22.22
2024-03-03T04:15:42.585Z,22.26
2024-03-03T04:16:42.587Z,22.22
2024-03-03T04:17:42.630Z,22.27
2024-03-03T04:18:42.699Z,22.24
2024-03-03T04:19:42.675Z,22.24
2024-03-03T04:20:43.528Z,22.30
2024-03-03T04:21:42.758Z,22.31
2024-03-03T04:22:43.035Z,22.30
2024-03-03T04:23:42.798Z,22.30
2024-03-03T04:24:42.791Z,22.32
2024-03-03T04:25:42.822Z,22.37
2024-03-03T04:26:42.855Z,22.30
2024-03-03T04:27:42.903Z,22.32
2024-03-03T04:28:42.911Z,22.31
2024-03-03T04:29:43.525Z,22.30
2024-03-03T04:30:42.986Z,22.32
2024-03-03T04:31:43.531Z,22.32
2024-03-03T04:32:43.035Z,22.33
2024-03-03T04:33:43.082Z,22.37
2024-03-03T04:34:43.075Z,22.30
2024-03-03T04:35:43.102Z,22.35
2024-03-03T04:36:43.133Z,22.35
2024-03-03T04:37:43.156Z,22.30
2024-03-03T04:38:43.267Z,22.37
2024-03-03T04:39:44.073Z,22.33
2024-03-03T04:40:43.260Z,22.37
2024-03-03T04:41:43.291Z,22.40
2024-03-03T04:42:43.377Z,22.37
2024-03-03T04:43:43.375Z,22.37
2024-03-03T04:44:43.381Z,22.37
2024-03-03T04:45:43.485Z,22.37
2024-03-03T04:46:50.921Z,22.41
2024-03-03T04:47:51.818Z,22.41
2024-03-03T04:48:51.818Z,22.46
2024-03-03T04:49:51.794Z,22.41
2024-03-03T04:50:51.790Z,22.42
2024-03-03T04:51:51.828Z,22.37
2024-03-03T04:52:51.801Z,22.41
2024-03-03T04:53:51.827Z,22.36
2024-03-03T04:54:51.841Z,22.41
2024-03-03T04:55:51.805Z,22.41
2024-03-03T04:56:51.870Z,22.38
2024-03-03T04:57:51.822Z,22.40
2024-03-03T04:58:51.807Z,22.43
2024-03-03T04:59:51.832Z,22.43
2024-03-03T05:00:51.857Z,22.45
2024-03-03T05:01:51.936Z,22.43
2024-03-03T05:02:51.809Z,22.41
2024-03-03T05:03:51.852Z,22.46
2024-03-03T05:04:51.818Z,22.49
2024-03-03T05:05:51.813Z,22.43
2024-03-03T05:06:52.007Z,22.46
2024-03-03T05:07:51.826Z,22.41
2024-03-03T05:08:51.827Z,22.46
2024-03-03T05:09:51.867Z,22.41
2024-03-03T05:10:51.902Z,22.46
2024-03-03T05:11:51.832Z,22.48
2024-03-03T05:12:51.866Z,22.43
2024-03-03T05:13:51.837Z,22.43
2024-03-03T05:14:51.830Z,22.45
2024-03-03T05:15:51.879Z,22.41
2024-03-03T05:16:51.863Z,22.49
2024-03-03T05:17:54.202Z,22.43
2024-03-03T05:18:51.902Z,22.40
2024-03-03T05:19:51.842Z,22.45
2024-03-03T05:20:51.850Z,22.40
2024-03-03T05:21:51.847Z,22.40
2024-03-03T05:22:51.851Z,22.43
2024-03-03T05:23:51.874Z,22.38
2024-03-03T05:24:51.896Z,22.44
2024-03-03T05:25:51.857Z,22.43
2024-03-03T05:26:51.936Z,22.45
2024-03-03T05:27:51.973Z,22.45
2024-03-03T05:28:51.887Z,22.41
2024-03-03T05:29:51.850Z,22.41
2024-03-03T05:30:51.878Z,22.43
2024-03-03T05:31:51.862Z,22.41
2024-03-03T05:32:51.870Z,22.41
2024-03-03T05:33:51.895Z,22.40
2024-03-03T05:34:51.862Z,22.47
2024-03-03T05:35:51.876Z,22.41
2024-03-03T05:36:52.006Z,22.43
2024-03-03T05:37:51.866Z,22.45
2024-03-03T05:38:51.865Z,22.45
2024-03-03T05:39:51.924Z,22.43
2024-03-03T05:40:51.878Z,22.45
2024-03-03T05:41:51.884Z,22.44
2024-03-03T05:42:51.913Z,22.41
2024-03-03T05:43:51.882Z,22.41
2024-03-03T05:44:51.864Z,22.44
2024-03-03T05:45:51.897Z,22.48
2024-03-03T05:46:51.905Z,22.44
2024-03-03T05:47:51.926Z,22.41
2024-03-03T05:48:51.889Z,22.49
2024-03-03T05:49:51.870Z,22.44
2024-03-03T05:50:51.883Z,22.43
2024-03-03T05:51:51.899Z,22.38
2024-03-03T05:52:51.879Z,22.44
2024-03-03T05:53:51.888Z,22.41
2024-03-03T05:54:51.900Z,22.41
2024-03-03T05:55:51.891Z,22.43
2024-03-03T05:56:51.912Z,22.40
2024-03-03T05:57:51.925Z,22.46
2024-03-03T05:58:51.917Z,22.38
2024-03-03T05:59:51.891Z,22.46
2024-03-03T06:00:52.108Z,22.51
2024-03-03T06:01:52.004Z,22.48
2024-03-03T06:02:51.903Z,22.41
2024-03-03T06:03:51.950Z,22.44
2024-03-03T06:04:51.936Z,22.41
2024-03-03T06:05:51.916Z,22.48
2024-03-03T06:06:51.971Z,22.49
2024-03-03T06:07:51.907Z,22.43
2024-03-03T06:08:51.901Z,22.39
2024-03-03T06:09:51.958Z,22.44
2024-03-03T06:10:51.953Z,22.44
2024-03-03T06:11:51.932Z,22.41
2024-03-03T06:12:51.939Z,22.41
2024-03-03T06:13:51.900Z,22.46
2024-03-03T06:14:51.945Z,22.40
2024-03-03T06:15:51.983Z,22.41
2024-03-03T06:16:53.949Z,22.41
2024-03-03T06:17:51.949Z,22.39
2024-03-03T06:18:51.921Z,22.41
2024-03-03T06:19:51.913Z,22.38
2024-03-03T06:20:51.917Z,22.38
2024-03-03T06:21:52.274Z,22.40
2024-03-03T06:22:51.932Z,22.33
2024-03-03T06:23:51.931Z,22.38
2024-03-03T06:24:51.939Z,22.38
2024-03-03T06:25:51.943Z,22.44
2024-03-03T06:26:52.041Z,22.39
2024-03-03T06:27:51.964Z,22.36
2024-03-03T06:28:51.937Z,22.38
2024-03-03T06:29:51.946Z,22.33
2024-03-03T06:30:51.998Z,22.38
2024-03-03T06:31:51.943Z,22.38
2024-03-03T06:32:52.026Z,22.33
2024-03-03T06:33:52.014Z,22.32
2024-03-03T06:34:51.970Z,22.33
2024-03-03T06:35:51.947Z,22.35
2024-03-03T06:36:52.039Z,22.31
2024-03-03T06:37:52.015Z,22.35
2024-03-03T06:38:51.953Z,22.33
2024-03-03T06:39:52.025Z,22.40
2024-03-03T06:40:51.959Z,22.30
2024-03-03T06:41:51.963Z,22.27
2024-03-03T06:42:52.011Z,22.18
2024-03-03T06:43:51.968Z,22.25
2024-03-03T06:44:51.984Z,22.25
2024-03-03T06:45:51.985Z,22.24
2024-03-03T06:46:52.057Z,22.25
2024-03-03T06:47:51.999Z,22.28
2024-03-03T06:48:51.975Z,22.24
2024-03-03T06:49:51.973Z,22.24
2024-03-03T06:50:51.979Z,22.25
2024-03-03T06:51:52.019Z,22.25
2024-03-03T06:52:52.010Z,22.25
2024-03-03T06:53:51.979Z,22.25
2024-03-03T06:54:52.026Z,22.19
2024-03-03T06:55:51.988Z,22.24
2024-03-03T06:56:52.023Z,22.20
2024-03-03T06:57:52.052Z,22.16
2024-03-03T06:58:51.989Z,22.16
2024-03-03T06:59:51.993Z,22.14
2024-03-03T07:00:52.063Z,22.11
2024-03-03T07:01:52.171Z,22.06
2024-03-03T07:02:52.035Z,22.09
2024-03-03T07:03:52.029Z,22.17
2024-03-03T07:04:52.014Z,22.14
2024-03-03T07:05:52.016Z,22.12
2024-03-03T07:06:52.041Z,22.13
2024-03-03T07:07:52.021Z,22.09
2024-03-03T07:08:52.019Z,22.13
2024-03-03T07:09:52.050Z,22.11
2024-03-03T07:10:52.036Z,22.11
2024-03-03T07:11:52.027Z,22.10
2024-03-03T07:12:52.066Z,22.08
2024-03-03T07:13:52.033Z,22.03
2024-03-03T07:14:52.026Z,22.14
2024-03-03T07:15:52.083Z,22.05
2024-03-03T07:16:52.216Z,22.02
2024-03-03T07:17:52.084Z,22.03
2024-03-03T07:18:52.071Z,21.86
2024-03-03T07:19:52.039Z,21.95
2024-03-03T07:20:52.039Z,22.02
2024-03-03T07:21:52.074Z,21.97
2024-03-03T07:22:52.041Z,21.86
2024-03-03T07:23:52.045Z,21.86
2024-03-03T07:24:52.776Z,21.79
2024-03-03T07:25:52.049Z,21.78
2024-03-03T07:26:52.161Z,21.74
2024-03-03T07:27:52.071Z,21.69
2024-03-03T07:28:52.054Z,21.76
2024-03-03T07:29:52.056Z,21.78
2024-03-03T07:30:52.097Z,21.78
2024-03-03T07:31:52.062Z,21.81
2024-03-03T07:32:52.079Z,21.81
2024-03-03T07:33:52.165Z,21.83
2024-03-03T07:34:52.091Z,21.79
2024-03-03T07:35:52.075Z,21.76
2024-03-03T07:36:52.190Z,21.76
2024-03-03T07:37:52.073Z,21.78
2024-03-03T07:38:52.102Z,21.83
2024-03-03T07:39:52.110Z,21.84
2024-03-03T07:40:52.122Z,21.83
2024-03-03T07:41:52.134Z,21.91
2024-03-03T07:42:52.213Z,21.89
2024-03-03T07:43:52.170Z,21.91
2024-03-03T07:44:52.195Z,21.89
2024-03-03T07:45:52.206Z,21.80
2024-03-03T07:46:52.234Z,21.80
2024-03-03T07:47:52.230Z,21.81
2024-03-03T07:48:52.267Z,21.76
2024-03-03T07:49:52.274Z,21.64
2024-03-03T07:50:52.320Z,21.65
2024-03-03T07:51:52.370Z,21.72
2024-03-03T07:52:52.337Z,21.69
2024-03-03T07:53:52.325Z,21.65
2024-03-03T07:54:52.371Z,21.56
2024-03-03T07:55:52.341Z,21.51
2024-03-03T07:56:52.376Z,21.40
2024-03-03T07:57:52.394Z,21.30
2024-03-03T07:58:52.392Z,21.25
2024-03-03T07:59:52.403Z,21.25
2024-03-03T08:00:52.504Z,21.35
2024-03-03T08:01:52.622Z,21.32
2024-03-03T08:02:52.438Z,21.24
2024-03-03T08:03:52.469Z,21.43
2024-03-03T08:04:52.532Z,21.45
2024-03-03T08:05:52.472Z,21.42
2024-03-03T08:06:52.550Z,21.49
2024-03-03T08:07:52.501Z,21.42
2024-03-03T08:08:53.470Z,21.33
2024-03-03T08:09:52.549Z,21.16
2024-03-03T08:10:52.517Z,21.08
2024-03-03T08:11:52.603Z,21.16
2024-03-03T08:12:52.585Z,21.19
2024-03-03T08:13:52.535Z,21.06
2024-03-03T08:14:52.557Z,21.04
2024-03-03T08:15:52.631Z,21.05
2024-03-03T08:16:52.552Z,21.26
2024-03-03T08:17:52.621Z,21.27
2024-03-03T08:18:52.668Z,21.21
2024-03-03T08:19:52.590Z,21.22
2024-03-03T08:20:52.572Z,21.27
2024-03-03T08:21:52.726Z,21.28
2024-03-03T08:22:52.642Z,21.21
2024-03-03T08:23:52.582Z,21.19
2024-03-03T08:24:52.645Z,21.15
2024-03-03T08:25:52.608Z,21.23
2024-03-03T08:26:52.610Z,21.16
2024-03-03T08:27:52.865Z,21.18
2024-03-03T08:28:52.651Z,21.20
2024-03-03T08:29:52.666Z,21.20
2024-03-03T08:30:52.743Z,21.20
2024-03-03T08:31:52.711Z,21.18
2024-03-03T08:32:52.754Z,21.13
2024-03-03T08:33:52.765Z,21.17
2024-03-03T08:34:52.776Z,21.15
2024-03-03T08:35:52.711Z,21.08
2024-03-03T08:36:52.764Z,21.08
2024-03-03T08:37:52.745Z,21.17
2024-03-03T08:38:52.804Z,21.14
2024-03-03T08:39:52.821Z,21.10
2024-03-03T08:40:52.818Z,21.04
2024-03-03T08:41:52.847Z,21.07
2024-03-03T08:42:52.929Z,21.05
2024-03-03T08:43:52.897Z,20.97
2024-03-03T08:44:52.917Z,21.01
2024-03-03T08:45:53.016Z,21.04
2024-03-03T08:46:52.971Z,20.94
2024-03-03T08:47:53.036Z,20.98
2024-03-03T08:48:53.125Z,20.99
2024-03-03T08:49:53.990Z,20.98
2024-03-03T08:50:56.185Z,20.99
2024-03-03T08:51:53.206Z,21.01
2024-03-03T08:52:53.173Z,20.96
2024-03-03T08:53:53.121Z,20.96
2024-03-03T08:54:53.178Z,20.96
2024-03-03T08:55:53.137Z,21.01
2024-03-03T08:56:53.129Z,20.95
2024-03-03T08:57:53.154Z,20.96
2024-03-03T08:58:53.126Z,20.98
2024-03-03T08:59:53.148Z,20.93
2024-03-03T09:00:53.213Z,20.95
2024-03-03T09:01:53.280Z,20.90
2024-03-03T09:02:53.139Z,20.96
2024-03-03T09:03:53.170Z,20.93
2024-03-03T09:04:53.141Z,20.87
2024-03-03T09:05:53.159Z,20.87
2024-03-03T09:06:53.178Z,20.85
2024-03-03T09:07:53.151Z,20.85
2024-03-03T09:08:53.153Z,20.79
2024-03-03T09:09:53.246Z,20.82
2024-03-03T09:10:53.374Z,20.85
2024-03-03T09:11:53.358Z,20.84
2024-03-03T09:12:53.436Z,20.77
2024-03-03T09:13:53.494Z,20.82
2024-03-03T09:14:53.556Z,20.79
2024-03-03T09:15:53.669Z,20.82
2024-03-03T09:16:53.703Z,20.77
2024-03-03T09:17:53.820Z,20.81
2024-03-03T09:18:53.866Z,20.84
2024-03-03T09:19:53.927Z,20.82
2024-03-03T09:20:54.018Z,20.76
2024-03-03T09:21:54.061Z,20.77
2024-03-03T09:22:54.124Z,20.74
2024-03-03T09:23:54.245Z,20.71
2024-03-03T09:24:54.299Z,20.76
2024-03-03T09:25:54.335Z,20.76
2024-03-03T09:26:54.435Z,20.73
2024-03-03T09:27:54.532Z,20.75
2024-03-03T09:28:54.578Z,20.73
2024-03-03T09:29:54.678Z,20.73
2024-03-03T09:30:54.739Z,20.71
2024-03-03T09:31:54.754Z,20.68
2024-03-03T09:32:54.935Z,20.66
2024-03-03T09:33:54.920Z,20.66
2024-03-03T09:34:54.967Z,20.63
2024-03-03T09:35:55.037Z,20.65
2024-03-03T09:36:55.129Z,20.61
2024-03-03T09:37:55.173Z,20.65
2024-03-03T09:38:55.250Z,20.66
2024-03-03T09:39:57.847Z,20.66
2024-03-03T09:40:55.325Z,20.68
2024-03-03T09:41:55.333Z,20.66
2024-03-03T09:42:55.366Z,20.70
2024-03-03T09:43:55.345Z,20.68
2024-03-03T09:44:55.339Z,20.65
2024-03-03T09:45:55.344Z,20.70
2024-03-03T09:46:55.366Z,20.70
2024-03-03T09:47:55.386Z,20.65
2024-03-03T09:48:55.355Z,20.65
2024-03-03T09:49:55.347Z,20.62
2024-03-03T09:50:55.348Z,20.63
2024-03-03T09:51:55.367Z,20.63
2024-03-03T09:52:55.350Z,20.62
2024-03-03T09:53:55.365Z,20.62
2024-03-03T09:54:55.423Z,20.68
2024-03-03T09:55:55.364Z,20.63
2024-03-03T09:56:55.362Z,20.63
2024-03-03T09:57:55.411Z,20.60
2024-03-03T09:58:55.403Z,20.72
2024-03-03T09:59:55.389Z,20.68
2024-03-03T10:00:55.492Z,20.67
2024-03-03T10:01:55.466Z,20.67
2024-03-03T10:02:55.375Z,20.59
2024-03-03T10:03:55.377Z,20.62
2024-03-03T10:04:55.453Z,20.65
2024-03-03T10:05:55.504Z,20.63
2024-03-03T10:06:55.619Z,20.62
2024-03-03T10:07:55.640Z,20.63
2024-03-03T10:08:55.708Z,20.66
2024-03-03T10:09:55.814Z,20.62
2024-03-03T10:10:56.288Z,20.57
2024-03-03T10:11:56.523Z,20.44
2024-03-03T10:12:56.044Z,20.50
2024-03-03T10:13:56.047Z,20.60
2024-03-03T10:14:58.180Z,20.50
2024-03-03T10:15:56.120Z,20.50
2024-03-03T10:16:56.118Z,20.36
2024-03-03T10:17:56.166Z,20.36
2024-03-03T10:18:56.138Z,20.37
2024-03-03T10:19:56.131Z,20.44
2024-03-03T10:20:56.128Z,20.39
2024-03-03T10:21:56.150Z,20.38
2024-03-03T10:22:56.141Z,20.39
2024-03-03T10:23:56.140Z,20.23
2024-03-03T10:24:56.188Z,20.28
2024-03-03T10:25:56.158Z,20.07
2024-03-03T10:26:56.289Z,20.04
2024-03-03T10:27:56.181Z,20.18
2024-03-03T10:28:56.147Z,20.31
2024-03-03T10:29:56.145Z,20.26
2024-03-03T10:30:56.191Z,20.23
2024-03-03T10:31:56.149Z,20.21
2024-03-03T10:32:56.178Z,20.20
2024-03-03T10:33:56.529Z,20.18
2024-03-03T10:34:56.162Z,20.18
2024-03-03T10:35:56.155Z,20.17
2024-03-03T10:36:56.188Z,20.15
2024-03-03T10:37:56.173Z,20.14
2024-03-03T10:38:56.256Z,20.06
2024-03-03T10:39:56.324Z,20.09
2024-03-03T10:40:56.378Z,20.04
2024-03-03T10:41:56.449Z,20.10
2024-03-03T10:42:56.552Z,20.10
2024-03-03T10:43:56.579Z,20.12
2024-03-03T10:44:56.648Z,20.02
2024-03-03T10:45:56.726Z,20.06
2024-03-03T10:46:56.799Z,20.07
2024-03-03T10:47:56.893Z,20.01
2024-03-03T10:48:56.935Z,19.99
2024-03-03T10:49:56.976Z,19.86
2024-03-03T10:50:57.040Z,19.93
2024-03-03T10:51:57.129Z,19.94
2024-03-03T10:52:57.171Z,19.93
2024-03-03T10:53:57.236Z,19.94
2024-03-03T10:54:57.325Z,19.93
2024-03-03T10:55:57.385Z,19.88
2024-03-03T10:56:57.419Z,19.83
2024-03-03T10:57:57.534Z,19.93
2024-03-03T10:58:57.552Z,19.89
2024-03-03T10:59:57.607Z,19.86
2024-03-03T11:00:57.713Z,19.82
2024-03-03T11:01:57.859Z,19.83
2024-03-03T11:02:57.835Z,19.83
2024-03-03T11:03:57.894Z,19.87
2024-03-03T11:04:57.966Z,19.91
2024-03-03T11:05:57.966Z,19.83
2024-03-03T11:06:58.083Z,19.82
2024-03-03T11:07:58.091Z,19.85
2024-03-03T11:08:58.167Z,19.83
2024-03-03T11:09:58.255Z,19.82
2024-03-03T11:10:58.277Z,19.80
2024-03-03T11:11:58.325Z,19.77
2024-03-03T11:12:58.455Z,19.79
2024-03-03T11:13:58.437Z,19.80
2024-03-03T11:14:58.499Z,19.90
2024-03-03T11:15:58.564Z,19.87
2024-03-03T11:16:58.617Z,19.89
2024-03-03T11:17:58.751Z,19.89
2024-03-03T11:18:58.818Z,19.84
2024-03-03T11:19:58.793Z,19.82
2024-03-03T11:20:58.849Z,19.80
2024-03-03T11:21:58.961Z,19.82
2024-03-03T11:22:58.968Z,19.79
2024-03-03T11:23:59.023Z,19.77
2024-03-03T11:24:59.090Z,19.82
2024-03-03T11:25:59.134Z,19.73
2024-03-03T11:26:59.194Z,19.79
2024-03-03T11:27:59.276Z,19.69
2024-03-03T11:28:59.306Z,19.82
2024-03-03T11:29:59.374Z,19.77
2024-03-03T11:30:59.443Z,19.77
2024-03-03T11:31:59.488Z,19.81
2024-03-03T11:32:59.557Z,19.76
2024-03-03T11:33:59.627Z,19.74
2024-03-03T11:34:59.712Z,19.69
2024-03-03T11:35:59.705Z,19.69
2024-03-03T11:36:59.830Z,19.69
2024-03-03T11:37:59.823Z,19.65
2024-03-03T11:38:59.871Z,19.64
2024-03-03T11:39:59.962Z,19.73
2024-03-03T11:40:59.983Z,19.64
2024-03-03T11:42:00.100Z,19.63
2024-03-03T11:43:00.100Z,19.64
2024-03-03T11:44:00.152Z,19.69
2024-03-03T11:45:00.253Z,19.64
2024-03-03T11:46:02.110Z,19.69
2024-03-03T11:47:00.259Z,19.73
2024-03-03T11:48:00.430Z,19.70
2024-03-03T11:49:00.323Z,19.63
2024-03-03T11:50:00.263Z,19.63
2024-03-03T11:51:00.281Z,19.61
2024-03-03T11:52:00.289Z,19.55
2024-03-03T11:53:00.263Z,19.55
2024-03-03T11:54:00.268Z,19.55
2024-03-03T11:55:00.327Z,19.55
2024-03-03T11:56:00.270Z,19.55
2024-03-03T11:57:00.263Z,19.52
2024-03-03T11:58:00.421Z,19.52
2024-03-03T11:59:00.272Z,19.47
2024-03-03T12:00:00.324Z,19.42
2024-03-03T12:01:00.373Z,19.50
2024-03-03T12:02:00.405Z,19.42
2024-03-03T12:03:00.283Z,19.44
2024-03-03T12:04:00.286Z,19.40
2024-03-03T12:05:00.283Z,19.32
2024-03-03T12:06:00.280Z,19.34
2024-03-03T12:07:00.328Z,19.29
2024-03-03T12:08:00.289Z,19.31
2024-03-03T12:09:00.288Z,19.36
2024-03-03T12:10:00.432Z,19.34
2024-03-03T12:11:00.322Z,19.31
2024-03-03T12:12:00.296Z,19.32
2024-03-03T12:13:00.484Z,19.32
2024-03-03T12:14:00.413Z,19.26
2024-03-03T12:15:00.485Z,19.24
2024-03-03T12:16:00.550Z,19.24
2024-03-03T12:17:00.588Z,19.29
2024-03-03T12:18:00.711Z,19.19
2024-03-03T12:19:00.675Z,19.16
2024-03-03T12:20:00.731Z,19.23
2024-03-03T12:21:00.778Z,19.19
2024-03-03T12:22:00.895Z,19.26
2024-03-03T12:23:00.915Z,19.23
2024-03-03T12:24:00.953Z,19.24
2024-03-03T12:25:01.028Z,19.26
2024-03-03T12:26:04.211Z,19.18
2024-03-03T12:27:01.046Z,19.21
2024-03-03T12:28:01.176Z,19.21
2024-03-03T12:29:01.054Z,19.23
2024-03-03T12:30:01.115Z,19.21
2024-03-03T12:31:01.081Z,19.18
2024-03-03T12:32:03.446Z,19.25
2024-03-03T12:33:01.095Z,19.28
2024-03-03T12:34:01.091Z,19.26
2024-03-03T12:35:01.077Z,19.26
2024-03-03T12:36:01.058Z,19.31
2024-03-03T12:37:01.151Z,19.29
2024-03-03T12:38:01.065Z,19.30
2024-03-03T12:39:01.103Z,19.25
2024-03-03T12:40:01.126Z,19.31
2024-03-03T12:41:01.075Z,19.29
2024-03-03T12:42:01.088Z,19.29
2024-03-03T12:43:01.099Z,19.32
2024-03-03T12:44:01.077Z,19.24
2024-03-03T12:45:01.068Z,19.26
2024-03-03T12:46:01.083Z,19.26
2024-03-03T12:47:01.077Z,19.23
2024-03-03T12:48:01.100Z,19.20
2024-03-03T12:49:01.097Z,19.13
2024-03-03T12:50:01.090Z,19.12
2024-03-03T12:51:01.083Z,19.17
2024-03-03T12:52:01.101Z,19.12
2024-03-03T12:53:01.080Z,19.07
2024-03-03T12:54:01.097Z,19.05
2024-03-03T12:55:01.129Z,19.05
2024-03-03T12:56:01.085Z,18.99
2024-03-03T12:57:01.093Z,19.09
2024-03-03T12:58:01.136Z,19.07
2024-03-03T12:59:01.098Z,19.01
2024-03-03T13:00:01.108Z,18.91
2024-03-03T13:01:01.177Z,18.97
2024-03-03T13:02:01.173Z,18.96
2024-03-03T13:03:01.119Z,19.01
2024-03-03T13:04:01.179Z,18.91
2024-03-03T13:05:01.202Z,18.91
2024-03-03T13:06:01.255Z,18.88
2024-03-03T13:07:01.336Z,18.89
2024-03-03T13:08:01.609Z,18.89
2024-03-03T13:09:01.411Z,18.89
2024-03-03T13:10:01.520Z,18.84
2024-03-03T13:11:01.560Z,18.84
2024-03-03T13:12:01.552Z,18.84
2024-03-03T13:13:01.638Z,18.79
2024-03-03T13:14:01.666Z,18.76
2024-03-03T13:15:01.717Z,18.73
2024-03-03T13:16:01.838Z,18.70
2024-03-03T13:17:03.537Z,18.73
2024-03-03T13:18:01.867Z,18.65
2024-03-03T13:19:02.123Z,18.70
2024-03-03T13:20:01.871Z,18.73
2024-03-03T13:21:01.822Z,18.59
2024-03-03T13:22:01.890Z,18.61
2024-03-03T13:23:01.837Z,18.63
2024-03-03T13:24:01.841Z,18.66
2024-03-03T13:25:01.860Z,18.59
2024-03-03T13:26:01.826Z,18.63
2024-03-03T13:27:01.858Z,18.52
2024-03-03T13:28:01.880Z,18.52
2024-03-03T13:29:01.856Z,18.60
2024-03-03T13:30:01.846Z,18.59
2024-03-03T13:31:01.929Z,18.68
2024-03-03T13:32:01.873Z,18.62
2024-03-03T13:33:01.891Z,18.60
2024-03-03T13:34:01.868Z,18.59
2024-03-03T13:35:01.961Z,18.49
2024-03-03T13:36:01.844Z,18.50
2024-03-03T13:37:01.901Z,18.52
2024-03-03T13:38:01.866Z,18.55
2024-03-03T13:39:01.856Z,18.60
2024-03-03T13:40:02.014Z,18.62
2024-03-03T13:41:01.877Z,18.60
2024-03-03T13:42:01.943Z,18.65